sensor_id;sensor_type;location;lat;lon;timestamp;P1;durP1;ratioP1;P2;durP2;ratioP2
48861;SDS011;34681;49.188;-0.374;2023-03-12T00:01:24;60.00;;;14.50;;
48861;SDS011;34681;49.188;-0.374;2023-03-12T00:03:51;51.20;;;11.27;;
48861;SDS011;34681;49.188;-0.374;2023-03-12T00:06:18;48.97;;;11.90;;
48861;SDS011;34681;49.188;-0.374;2023-03-12T00:08:44;66.23;;;16.70;;
48861;SDS011;34681;49.188;-0.374;2023-03-12T00:11:11;65.23;;;14.20;;
48861;SDS011;34681;49.188;-0.374;2023-03-12T00:13:38;43.53;;;12.20;;
48861;SDS011;34681;49.188;-0.374;2023-03-12T00:16:08;61.40;;;13.00;;
48861;SDS011;34681;49.188;-0.374;2023-03-12T00:18:39;46.23;;;12.17;;
48861;SDS011;34681;49.188;-0.374;2023-03-12T00:21:06;39.20;;;10.93;;
48861;SDS011;34681;49.188;-0.374;2023-03-12T00:23:32;48.23;;;11.50;;
48861;SDS011;34681;49.188;-0.374;2023-03-12T00:26:02;47.90;;;11.93;;
48861;SDS011;34681;49.188;-0.374;2023-03-12T00:28:29;43.57;;;9.83;;
48861;SDS011;34681;49.188;-0.374;2023-03-12T00:30:55;52.97;;;12.13;;
48861;SDS011;34681;49.188;-0.374;2023-03-12T00:33:22;36.23;;;11.07;;
48861;SDS011;34681;49.188;-0.374;2023-03-12T00:35:48;44.93;;;11.37;;
48861;SDS011;34681;49.188;-0.374;2023-03-12T00:38:13;38.57;;;9.50;;
48861;SDS011;34681;49.188;-0.374;2023-03-12T00:40:38;45.67;;;10.10;;
48861;SDS011;34681;49.188;-0.374;2023-03-12T00:43:04;50.43;;;10.97;;
48861;SDS011;34681;49.188;-0.374;2023-03-12T00:45:29;35.77;;;10.07;;
48861;SDS011;34681;49.188;-0.374;2023-03-12T00:47:54;47.03;;;12.60;;
48861;SDS011;34681;49.188;-0.374;2023-03-12T00:50:20;48.33;;;9.90;;
48861;SDS011;34681;49.188;-0.374;2023-03-12T00:52:45;44.43;;;10.27;;
48861;SDS011;34681;49.188;-0.374;2023-03-12T00:55:10;57.00;;;10.27;;
48861;SDS011;34681;49.188;-0.374;2023-03-12T00:57:36;49.30;;;10.83;;
48861;SDS011;34681;49.188;-0.374;2023-03-12T01:00:03;38.60;;;9.40;;
48861;SDS011;34681;49.188;-0.374;2023-03-12T01:02:34;33.77;;;8.53;;
48861;SDS011;34681;49.188;-0.374;2023-03-12T01:04:59;39.70;;;10.67;;
48861;SDS011;34681;49.188;-0.374;2023-03-12T01:07:24;45.80;;;11.00;;
48861;SDS011;34681;49.188;-0.374;2023-03-12T01:09:50;60.00;;;12.67;;
48861;SDS011;34681;49.188;-0.374;2023-03-12T01:12:15;33.83;;;9.10;;
48861;SDS011;34681;49.188;-0.374;2023-03-12T01:14:40;56.27;;;10.40;;
48861;SDS011;34681;49.188;-0.374;2023-03-12T01:17:06;44.30;;;10.47;;
48861;SDS011;34681;49.188;-0.374;2023-03-12T01:19:31;70.67;;;12.20;;
48861;SDS011;34681;49.188;-0.374;2023-03-12T01:21:56;40.30;;;10.20;;
48861;SDS011;34681;49.188;-0.374;2023-03-12T01:24:21;54.23;;;12.27;;
48861;SDS011;34681;49.188;-0.374;2023-03-12T01:26:47;41.43;;;9.60;;
48861;SDS011;34681;49.188;-0.374;2023-03-12T01:29:12;52.37;;;9.80;;
48861;SDS011;34681;49.188;-0.374;2023-03-12T01:31:37;46.90;;;11.10;;
48861;SDS011;34681;49.188;-0.374;2023-03-12T01:34:03;37.30;;;8.57;;
48861;SDS011;34681;49.188;-0.374;2023-03-12T01:36:28;46.37;;;11.17;;
48861;SDS011;34681;49.188;-0.374;2023-03-12T01:38:55;32.27;;;8.57;;
48861;SDS011;34681;49.188;-0.374;2023-03-12T01:41:23;51.03;;;10.57;;
48861;SDS011;34681;49.188;-0.374;2023-03-12T01:43:50;46.27;;;10.00;;
48861;SDS011;34681;49.188;-0.374;2023-03-12T01:52:20;50.90;;;11.27;;
48861;SDS011;34681;49.188;-0.374;2023-03-12T01:56:51;37.63;;;9.17;;
48861;SDS011;34681;49.188;-0.374;2023-03-12T01:59:28;51.20;;;10.07;;
48861;SDS011;34681;49.188;-0.374;2023-03-12T02:01:56;40.37;;;9.83;;
48861;SDS011;34681;49.188;-0.374;2023-03-12T02:04:22;34.10;;;8.20;;
48861;SDS011;34681;49.188;-0.374;2023-03-12T02:07:04;33.80;;;8.60;;
48861;SDS011;34681;49.188;-0.374;2023-03-12T02:09:33;39.77;;;9.50;;
48861;SDS011;34681;49.188;-0.374;2023-03-12T02:12:00;38.37;;;9.73;;
48861;SDS011;34681;49.188;-0.374;2023-03-12T02:14:26;50.13;;;11.00;;
48861;SDS011;34681;49.188;-0.374;2023-03-12T02:16:52;40.43;;;9.77;;
48861;SDS011;34681;49.188;-0.374;2023-03-12T02:19:29;40.53;;;8.53;;
48861;SDS011;34681;49.188;-0.374;2023-03-12T02:21:56;34.27;;;9.10;;
48861;SDS011;34681;49.188;-0.374;2023-03-12T02:27:31;47.80;;;9.80;;
48861;SDS011;34681;49.188;-0.374;2023-03-12T02:30:00;46.60;;;9.87;;
48861;SDS011;34681;49.188;-0.374;2023-03-12T02:32:28;36.73;;;12.10;;
48861;SDS011;34681;49.188;-0.374;2023-03-12T02:34:58;53.10;;;10.70;;
48861;SDS011;34681;49.188;-0.374;2023-03-12T02:37:24;47.20;;;9.00;;
48861;SDS011;34681;49.188;-0.374;2023-03-12T02:39:54;45.00;;;10.30;;
48861;SDS011;34681;49.188;-0.374;2023-03-12T02:42:37;46.57;;;10.70;;
48861;SDS011;34681;49.188;-0.374;2023-03-12T02:45:03;39.37;;;9.30;;
48861;SDS011;34681;49.188;-0.374;2023-03-12T02:47:29;54.53;;;9.77;;
48861;SDS011;34681;49.188;-0.374;2023-03-12T02:49:54;39.40;;;10.40;;
48861;SDS011;34681;49.188;-0.374;2023-03-12T02:52:20;40.80;;;10.00;;
48861;SDS011;34681;49.188;-0.374;2023-03-12T02:54:45;45.17;;;12.57;;
48861;SDS011;34681;49.188;-0.374;2023-03-12T02:57:10;56.77;;;13.60;;
48861;SDS011;34681;49.188;-0.374;2023-03-12T02:59:36;43.17;;;9.37;;
48861;SDS011;34681;49.188;-0.374;2023-03-12T03:02:01;36.07;;;9.20;;
48861;SDS011;34681;49.188;-0.374;2023-03-12T03:04:27;39.77;;;11.70;;
48861;SDS011;34681;49.188;-0.374;2023-03-12T03:06:54;30.93;;;8.10;;
48861;SDS011;34681;49.188;-0.374;2023-03-12T03:09:19;35.13;;;9.30;;
48861;SDS011;34681;49.188;-0.374;2023-03-12T03:11:46;43.00;;;10.40;;
48861;SDS011;34681;49.188;-0.374;2023-03-12T03:14:12;52.67;;;11.20;;
48861;SDS011;34681;49.188;-0.374;2023-03-12T03:16:37;34.93;;;9.60;;
48861;SDS011;34681;49.188;-0.374;2023-03-12T03:19:03;43.03;;;11.50;;
48861;SDS011;34681;49.188;-0.374;2023-03-12T03:21:29;48.60;;;11.13;;
48861;SDS011;34681;49.188;-0.374;2023-03-12T03:23:54;42.80;;;10.00;;
48861;SDS011;34681;49.188;-0.374;2023-03-12T03:26:20;52.00;;;11.33;;
48861;SDS011;34681;49.188;-0.374;2023-03-12T03:28:46;42.10;;;10.60;;
48861;SDS011;34681;49.188;-0.374;2023-03-12T03:31:12;48.73;;;10.90;;
48861;SDS011;34681;49.188;-0.374;2023-03-12T03:33:38;51.17;;;10.90;;
48861;SDS011;34681;49.188;-0.374;2023-03-12T03:36:04;40.57;;;9.03;;
48861;SDS011;34681;49.188;-0.374;2023-03-12T03:38:31;33.97;;;9.70;;
48861;SDS011;34681;49.188;-0.374;2023-03-12T03:40:58;41.30;;;10.03;;
48861;SDS011;34681;49.188;-0.374;2023-03-12T03:43:24;44.73;;;10.30;;
48861;SDS011;34681;49.188;-0.374;2023-03-12T03:46:00;52.73;;;10.93;;
48861;SDS011;34681;49.188;-0.374;2023-03-12T03:48:29;48.73;;;10.63;;
48861;SDS011;34681;49.188;-0.374;2023-03-12T03:50:58;45.63;;;10.87;;
48861;SDS011;34681;49.188;-0.374;2023-03-12T03:53:24;38.77;;;9.63;;
48861;SDS011;34681;49.188;-0.374;2023-03-12T03:55:50;33.10;;;9.10;;
48861;SDS011;34681;49.188;-0.374;2023-03-12T03:58:15;45.93;;;11.30;;
48861;SDS011;34681;49.188;-0.374;2023-03-12T04:00:42;47.07;;;10.97;;
48861;SDS011;34681;49.188;-0.374;2023-03-12T04:03:09;41.27;;;10.00;;
48861;SDS011;34681;49.188;-0.374;2023-03-12T04:05:34;40.43;;;8.87;;
48861;SDS011;34681;49.188;-0.374;2023-03-12T04:07:59;62.77;;;11.17;;
48861;SDS011;34681;49.188;-0.374;2023-03-12T04:10:27;72.80;;;12.17;;
48861;SDS011;34681;49.188;-0.374;2023-03-12T04:12:54;52.00;;;10.60;;
48861;SDS011;34681;49.188;-0.374;2023-03-12T04:15:20;41.10;;;9.20;;
48861;SDS011;34681;49.188;-0.374;2023-03-12T04:17:45;43.43;;;11.10;;
48861;SDS011;34681;49.188;-0.374;2023-03-12T04:20:11;39.63;;;9.50;;
48861;SDS011;34681;49.188;-0.374;2023-03-12T04:22:36;43.40;;;9.50;;
48861;SDS011;34681;49.188;-0.374;2023-03-12T04:25:02;32.40;;;8.03;;
48861;SDS011;34681;49.188;-0.374;2023-03-12T04:27:28;37.70;;;9.17;;
48861;SDS011;34681;49.188;-0.374;2023-03-12T04:29:53;41.27;;;9.20;;
48861;SDS011;34681;49.188;-0.374;2023-03-12T04:32:19;43.30;;;9.60;;
48861;SDS011;34681;49.188;-0.374;2023-03-12T04:34:44;41.90;;;10.97;;
48861;SDS011;34681;49.188;-0.374;2023-03-12T04:37:10;49.73;;;10.93;;
48861;SDS011;34681;49.188;-0.374;2023-03-12T04:39:37;49.40;;;11.90;;
48861;SDS011;34681;49.188;-0.374;2023-03-12T04:42:03;39.97;;;10.20;;
48861;SDS011;34681;49.188;-0.374;2023-03-12T04:44:29;45.87;;;11.50;;
48861;SDS011;34681;49.188;-0.374;2023-03-12T04:46:54;38.70;;;9.80;;
48861;SDS011;34681;49.188;-0.374;2023-03-12T04:49:19;38.57;;;9.00;;
48861;SDS011;34681;49.188;-0.374;2023-03-12T04:51:45;53.67;;;12.33;;
48861;SDS011;34681;49.188;-0.374;2023-03-12T04:54:10;46.63;;;9.97;;
48861;SDS011;34681;49.188;-0.374;2023-03-12T04:56:36;40.40;;;8.87;;
48861;SDS011;34681;49.188;-0.374;2023-03-12T04:59:01;43.87;;;10.40;;
48861;SDS011;34681;49.188;-0.374;2023-03-12T05:01:27;28.33;;;8.60;;
48861;SDS011;34681;49.188;-0.374;2023-03-12T05:03:54;41.43;;;8.23;;
48861;SDS011;34681;49.188;-0.374;2023-03-12T05:06:20;36.93;;;8.50;;
48861;SDS011;34681;49.188;-0.374;2023-03-12T05:08:47;45.17;;;10.80;;
48861;SDS011;34681;49.188;-0.374;2023-03-12T05:11:12;37.57;;;9.03;;
48861;SDS011;34681;49.188;-0.374;2023-03-12T05:13:38;50.37;;;10.33;;
48861;SDS011;34681;49.188;-0.374;2023-03-12T05:16:04;37.43;;;10.67;;
48861;SDS011;34681;49.188;-0.374;2023-03-12T05:18:29;35.10;;;9.73;;
48861;SDS011;34681;49.188;-0.374;2023-03-12T05:20:59;44.67;;;11.37;;
48861;SDS011;34681;49.188;-0.374;2023-03-12T05:23:26;40.17;;;10.83;;
48861;SDS011;34681;49.188;-0.374;2023-03-12T05:25:52;31.90;;;8.90;;
48861;SDS011;34681;49.188;-0.374;2023-03-12T05:28:17;42.43;;;9.80;;
48861;SDS011;34681;49.188;-0.374;2023-03-12T05:30:44;50.70;;;9.27;;
48861;SDS011;34681;49.188;-0.374;2023-03-12T05:33:10;45.43;;;11.87;;
48861;SDS011;34681;49.188;-0.374;2023-03-12T05:35:36;38.73;;;9.87;;
48861;SDS011;34681;49.188;-0.374;2023-03-12T05:38:01;33.20;;;8.90;;
48861;SDS011;34681;49.188;-0.374;2023-03-12T05:40:26;33.13;;;8.20;;
48861;SDS011;34681;49.188;-0.374;2023-03-12T05:42:52;48.73;;;12.77;;
48861;SDS011;34681;49.188;-0.374;2023-03-12T05:45:17;46.27;;;9.70;;
48861;SDS011;34681;49.188;-0.374;2023-03-12T05:47:43;39.60;;;9.60;;
48861;SDS011;34681;49.188;-0.374;2023-03-12T05:50:09;38.20;;;10.00;;
48861;SDS011;34681;49.188;-0.374;2023-03-12T05:52:36;56.40;;;10.83;;
48861;SDS011;34681;49.188;-0.374;2023-03-12T05:55:02;49.80;;;10.00;;
48861;SDS011;34681;49.188;-0.374;2023-03-12T05:57:28;39.53;;;9.80;;
48861;SDS011;34681;49.188;-0.374;2023-03-12T05:59:53;38.17;;;10.23;;
48861;SDS011;34681;49.188;-0.374;2023-03-12T06:02:18;29.87;;;8.77;;
48861;SDS011;34681;49.188;-0.374;2023-03-12T06:04:44;38.67;;;9.27;;
48861;SDS011;34681;49.188;-0.374;2023-03-12T06:07:09;41.63;;;9.10;;
48861;SDS011;34681;49.188;-0.374;2023-03-12T06:09:35;31.67;;;9.30;;
48861;SDS011;34681;49.188;-0.374;2023-03-12T06:12:00;37.77;;;9.47;;
48861;SDS011;34681;49.188;-0.374;2023-03-12T06:14:25;35.00;;;9.10;;
48861;SDS011;34681;49.188;-0.374;2023-03-12T06:16:51;31.43;;;7.80;;
48861;SDS011;34681;49.188;-0.374;2023-03-12T06:19:16;30.70;;;7.83;;
48861;SDS011;34681;49.188;-0.374;2023-03-12T06:21:42;34.67;;;8.50;;
48861;SDS011;34681;49.188;-0.374;2023-03-12T06:24:07;46.37;;;10.10;;
48861;SDS011;34681;49.188;-0.374;2023-03-12T06:26:33;30.10;;;7.20;;
48861;SDS011;34681;49.188;-0.374;2023-03-12T06:28:58;28.83;;;8.00;;
48861;SDS011;34681;49.188;-0.374;2023-03-12T06:31:24;38.77;;;9.90;;
48861;SDS011;34681;49.188;-0.374;2023-03-12T06:33:49;29.93;;;8.33;;
48861;SDS011;34681;49.188;-0.374;2023-03-12T06:36:15;49.63;;;10.57;;
48861;SDS011;34681;49.188;-0.374;2023-03-12T06:38:40;34.47;;;9.63;;
48861;SDS011;34681;49.188;-0.374;2023-03-12T06:41:07;31.00;;;9.47;;
48861;SDS011;34681;49.188;-0.374;2023-03-12T06:43:38;50.43;;;14.00;;
48861;SDS011;34681;49.188;-0.374;2023-03-12T06:46:04;42.77;;;14.60;;
48861;SDS011;34681;49.188;-0.374;2023-03-12T06:48:32;59.40;;;25.30;;
48861;SDS011;34681;49.188;-0.374;2023-03-12T06:51:00;51.30;;;19.77;;
48861;SDS011;34681;49.188;-0.374;2023-03-12T06:53:29;40.00;;;12.93;;
48861;SDS011;34681;49.188;-0.374;2023-03-12T06:55:58;36.43;;;11.20;;
48861;SDS011;34681;49.188;-0.374;2023-03-12T06:58:24;38.27;;;11.20;;
48861;SDS011;34681;49.188;-0.374;2023-03-12T07:00:49;34.23;;;9.30;;
48861;SDS011;34681;49.188;-0.374;2023-03-12T07:03:15;28.53;;;8.53;;
48861;SDS011;34681;49.188;-0.374;2023-03-12T07:05:45;26.77;;;8.00;;
48861;SDS011;34681;49.188;-0.374;2023-03-12T07:08:12;28.10;;;11.50;;
48861;SDS011;34681;49.188;-0.374;2023-03-12T07:10:37;40.27;;;10.47;;
48861;SDS011;34681;49.188;-0.374;2023-03-12T07:13:03;34.27;;;10.20;;
48861;SDS011;34681;49.188;-0.374;2023-03-12T07:15:29;39.13;;;10.97;;
48861;SDS011;34681;49.188;-0.374;2023-03-12T07:17:54;41.27;;;10.63;;
48861;SDS011;34681;49.188;-0.374;2023-03-12T07:20:24;35.23;;;11.37;;
48861;SDS011;34681;49.188;-0.374;2023-03-12T07:22:49;48.10;;;10.70;;
48861;SDS011;34681;49.188;-0.374;2023-03-12T07:25:15;42.70;;;11.73;;
48861;SDS011;34681;49.188;-0.374;2023-03-12T07:27:40;41.37;;;11.83;;
48861;SDS011;34681;49.188;-0.374;2023-03-12T07:30:06;36.53;;;10.70;;
48861;SDS011;34681;49.188;-0.374;2023-03-12T07:32:32;45.07;;;12.30;;
48861;SDS011;34681;49.188;-0.374;2023-03-12T07:34:57;38.37;;;10.87;;
48861;SDS011;34681;49.188;-0.374;2023-03-12T07:37:22;46.50;;;12.67;;
48861;SDS011;34681;49.188;-0.374;2023-03-12T07:39:48;46.80;;;11.30;;
48861;SDS011;34681;49.188;-0.374;2023-03-12T07:42:16;43.47;;;11.23;;
48861;SDS011;34681;49.188;-0.374;2023-03-12T07:44:41;40.90;;;11.80;;
48861;SDS011;34681;49.188;-0.374;2023-03-12T07:47:07;32.13;;;10.13;;
48861;SDS011;34681;49.188;-0.374;2023-03-12T07:49:32;33.10;;;10.20;;
48861;SDS011;34681;49.188;-0.374;2023-03-12T07:51:57;38.07;;;12.03;;
48861;SDS011;34681;49.188;-0.374;2023-03-12T07:54:23;42.10;;;11.23;;
48861;SDS011;34681;49.188;-0.374;2023-03-12T07:56:54;31.63;;;9.77;;
48861;SDS011;34681;49.188;-0.374;2023-03-12T07:59:20;33.53;;;11.00;;
48861;SDS011;34681;49.188;-0.374;2023-03-12T08:01:46;34.40;;;10.27;;
48861;SDS011;34681;49.188;-0.374;2023-03-12T08:04:11;33.97;;;9.67;;
48861;SDS011;34681;49.188;-0.374;2023-03-12T08:06:36;34.23;;;11.13;;
48861;SDS011;34681;49.188;-0.374;2023-03-12T08:09:06;26.17;;;8.77;;
48861;SDS011;34681;49.188;-0.374;2023-03-12T08:11:32;34.10;;;10.67;;
48861;SDS011;34681;49.188;-0.374;2023-03-12T08:13:58;39.33;;;9.53;;
48861;SDS011;34681;49.188;-0.374;2023-03-12T08:16:23;32.63;;;10.00;;
48861;SDS011;34681;49.188;-0.374;2023-03-12T08:18:49;32.87;;;10.93;;
48861;SDS011;34681;49.188;-0.374;2023-03-12T08:21:14;27.27;;;8.33;;
48861;SDS011;34681;49.188;-0.374;2023-03-12T08:23:40;31.10;;;10.50;;
48861;SDS011;34681;49.188;-0.374;2023-03-12T08:26:06;63.53;;;15.23;;
48861;SDS011;34681;49.188;-0.374;2023-03-12T08:28:31;45.57;;;12.80;;
48861;SDS011;34681;49.188;-0.374;2023-03-12T08:30:58;29.10;;;9.70;;
48861;SDS011;34681;49.188;-0.374;2023-03-12T08:33:24;39.53;;;10.70;;
48861;SDS011;34681;49.188;-0.374;2023-03-12T08:35:50;36.17;;;10.00;;
48861;SDS011;34681;49.188;-0.374;2023-03-12T08:38:16;27.03;;;9.17;;
48861;SDS011;34681;49.188;-0.374;2023-03-12T08:40:41;29.37;;;10.53;;
48861;SDS011;34681;49.188;-0.374;2023-03-12T08:43:07;26.73;;;8.50;;
48861;SDS011;34681;49.188;-0.374;2023-03-12T08:45:32;22.73;;;6.87;;
48861;SDS011;34681;49.188;-0.374;2023-03-12T08:48:00;24.70;;;7.47;;
48861;SDS011;34681;49.188;-0.374;2023-03-12T08:50:26;24.80;;;5.87;;
48861;SDS011;34681;49.188;-0.374;2023-03-12T08:52:53;22.07;;;7.43;;
48861;SDS011;34681;49.188;-0.374;2023-03-12T08:55:20;23.43;;;7.30;;
48861;SDS011;34681;49.188;-0.374;2023-03-12T08:57:45;24.77;;;8.13;;
48861;SDS011;34681;49.188;-0.374;2023-03-12T09:00:10;27.07;;;8.33;;
48861;SDS011;34681;49.188;-0.374;2023-03-12T09:02:39;36.40;;;7.63;;
48861;SDS011;34681;49.188;-0.374;2023-03-12T09:05:06;23.00;;;7.43;;
48861;SDS011;34681;49.188;-0.374;2023-03-12T09:07:32;23.77;;;8.73;;
48861;SDS011;34681;49.188;-0.374;2023-03-12T09:09:57;19.33;;;6.87;;
48861;SDS011;34681;49.188;-0.374;2023-03-12T09:12:23;24.67;;;5.47;;
48861;SDS011;34681;49.188;-0.374;2023-03-12T09:14:49;23.80;;;6.80;;
48861;SDS011;34681;49.188;-0.374;2023-03-12T09:17:15;22.07;;;6.27;;
48861;SDS011;34681;49.188;-0.374;2023-03-12T09:19:40;18.43;;;6.23;;
48861;SDS011;34681;49.188;-0.374;2023-03-12T09:22:05;18.93;;;5.87;;
48861;SDS011;34681;49.188;-0.374;2023-03-12T09:24:31;27.33;;;6.87;;
48861;SDS011;34681;49.188;-0.374;2023-03-12T09:26:56;20.43;;;6.97;;
48861;SDS011;34681;49.188;-0.374;2023-03-12T09:29:21;24.37;;;6.83;;
48861;SDS011;34681;49.188;-0.374;2023-03-12T09:31:47;23.50;;;6.13;;
48861;SDS011;34681;49.188;-0.374;2023-03-12T09:34:13;17.70;;;6.20;;
48861;SDS011;34681;49.188;-0.374;2023-03-12T09:36:38;24.97;;;8.20;;
48861;SDS011;34681;49.188;-0.374;2023-03-12T09:39:03;24.33;;;7.73;;
48861;SDS011;34681;49.188;-0.374;2023-03-12T09:41:30;21.53;;;7.20;;
48861;SDS011;34681;49.188;-0.374;2023-03-12T09:47:13;16.77;;;5.67;;
48861;SDS011;34681;49.188;-0.374;2023-03-12T09:49:50;18.37;;;6.07;;
48861;SDS011;34681;49.188;-0.374;2023-03-12T09:55:04;28.10;;;7.30;;
48861;SDS011;34681;49.188;-0.374;2023-03-12T09:57:50;16.73;;;5.70;;
48861;SDS011;34681;49.188;-0.374;2023-03-12T10:00:20;21.20;;;5.80;;
48861;SDS011;34681;49.188;-0.374;2023-03-12T10:09:05;14.57;;;6.17;;
48861;SDS011;34681;49.188;-0.374;2023-03-12T10:17:13;13.57;;;4.70;;
48861;SDS011;34681;49.188;-0.374;2023-03-12T10:19:58;13.47;;;6.07;;
48861;SDS011;34681;49.188;-0.374;2023-03-12T10:25:40;13.93;;;5.30;;
48861;SDS011;34681;49.188;-0.374;2023-03-12T10:28:19;17.90;;;5.87;;
48861;SDS011;34681;49.188;-0.374;2023-03-12T10:30:57;18.73;;;5.70;;
48861;SDS011;34681;49.188;-0.374;2023-03-12T10:33:29;19.10;;;6.30;;
48861;SDS011;34681;49.188;-0.374;2023-03-12T10:36:09;13.27;;;5.03;;
48861;SDS011;34681;49.188;-0.374;2023-03-12T10:38:39;17.30;;;5.20;;
48861;SDS011;34681;49.188;-0.374;2023-03-12T10:41:12;19.07;;;5.33;;
48861;SDS011;34681;49.188;-0.374;2023-03-12T10:43:39;12.63;;;4.57;;
48861;SDS011;34681;49.188;-0.374;2023-03-12T10:52:13;16.13;;;5.03;;
48861;SDS011;34681;49.188;-0.374;2023-03-12T10:54:40;21.00;;;6.10;;
48861;SDS011;34681;49.188;-0.374;2023-03-12T10:57:09;26.13;;;7.10;;
48861;SDS011;34681;49.188;-0.374;2023-03-12T10:59:37;12.60;;;4.83;;
48861;SDS011;34681;49.188;-0.374;2023-03-12T11:05:20;17.60;;;5.57;;
48861;SDS011;34681;49.188;-0.374;2023-03-12T11:07:50;22.93;;;6.70;;
48861;SDS011;34681;49.188;-0.374;2023-03-12T11:10:18;19.23;;;6.20;;
48861;SDS011;34681;49.188;-0.374;2023-03-12T11:15:29;13.33;;;5.97;;
48861;SDS011;34681;49.188;-0.374;2023-03-12T11:18:22;21.23;;;5.60;;
48861;SDS011;34681;49.188;-0.374;2023-03-12T11:20:56;16.23;;;5.00;;
48861;SDS011;34681;49.188;-0.374;2023-03-12T11:23:37;15.33;;;5.70;;
48861;SDS011;34681;49.188;-0.374;2023-03-12T11:26:18;12.93;;;5.30;;
48861;SDS011;34681;49.188;-0.374;2023-03-12T11:28:47;16.33;;;5.10;;
48861;SDS011;34681;49.188;-0.374;2023-03-12T11:31:30;17.53;;;5.93;;
48861;SDS011;34681;49.188;-0.374;2023-03-12T11:34:05;19.87;;;7.30;;
48861;SDS011;34681;49.188;-0.374;2023-03-12T11:45:07;15.83;;;5.83;;
48861;SDS011;34681;49.188;-0.374;2023-03-12T11:56:13;20.83;;;5.67;;
48861;SDS011;34681;49.188;-0.374;2023-03-12T12:17:31;14.93;;;5.70;;
48861;SDS011;34681;49.188;-0.374;2023-03-12T12:20:15;14.50;;;5.53;;
48861;SDS011;34681;49.188;-0.374;2023-03-12T12:23:13;15.27;;;5.50;;
48861;SDS011;34681;49.188;-0.374;2023-03-12T12:29:00;13.37;;;5.20;;
48861;SDS011;34681;49.188;-0.374;2023-03-12T12:31:36;12.87;;;5.10;;
48861;SDS011;34681;49.188;-0.374;2023-03-12T12:34:26;20.23;;;5.30;;
48861;SDS011;34681;49.188;-0.374;2023-03-12T12:42:51;14.03;;;5.77;;
48861;SDS011;34681;49.188;-0.374;2023-03-12T12:45:35;11.97;;;4.80;;
48861;SDS011;34681;49.188;-0.374;2023-03-12T12:50:31;21.73;;;7.77;;
48861;SDS011;34681;49.188;-0.374;2023-03-12T12:56:02;17.03;;;5.90;;
48861;SDS011;34681;49.188;-0.374;2023-03-12T12:58:42;19.57;;;6.10;;
48861;SDS011;34681;49.188;-0.374;2023-03-12T13:01:28;23.47;;;7.90;;
48861;SDS011;34681;49.188;-0.374;2023-03-12T13:04:03;24.20;;;8.60;;
48861;SDS011;34681;49.188;-0.374;2023-03-12T13:06:52;16.73;;;6.27;;
48861;SDS011;34681;49.188;-0.374;2023-03-12T13:09:20;19.47;;;8.63;;
48861;SDS011;34681;49.188;-0.374;2023-03-12T13:11:47;14.53;;;7.00;;
48861;SDS011;34681;49.188;-0.374;2023-03-12T13:14:19;18.63;;;10.33;;
48861;SDS011;34681;49.188;-0.374;2023-03-12T13:16:47;20.47;;;8.53;;
48861;SDS011;34681;49.188;-0.374;2023-03-12T13:24:18;16.73;;;6.13;;
48861;SDS011;34681;49.188;-0.374;2023-03-12T13:29:52;14.30;;;5.77;;
48861;SDS011;34681;49.188;-0.374;2023-03-12T13:34:58;18.07;;;4.80;;
48861;SDS011;34681;49.188;-0.374;2023-03-12T13:43:02;13.47;;;4.83;;
48861;SDS011;34681;49.188;-0.374;2023-03-12T13:48:21;10.30;;;3.90;;
48861;SDS011;34681;49.188;-0.374;2023-03-12T13:50:49;15.20;;;5.90;;
48861;SDS011;34681;49.188;-0.374;2023-03-12T13:53:21;17.10;;;5.00;;
48861;SDS011;34681;49.188;-0.374;2023-03-12T13:55:58;14.60;;;5.00;;
48861;SDS011;34681;49.188;-0.374;2023-03-12T13:58:27;19.47;;;6.00;;
48861;SDS011;34681;49.188;-0.374;2023-03-12T14:01:02;16.37;;;4.50;;
48861;SDS011;34681;49.188;-0.374;2023-03-12T14:06:04;22.17;;;6.60;;
48861;SDS011;34681;49.188;-0.374;2023-03-12T14:16:48;14.57;;;4.83;;
48861;SDS011;34681;49.188;-0.374;2023-03-12T14:19:17;15.33;;;6.23;;
48861;SDS011;34681;49.188;-0.374;2023-03-12T14:21:46;15.47;;;5.43;;
48861;SDS011;34681;49.188;-0.374;2023-03-12T14:24:22;18.27;;;5.80;;
48861;SDS011;34681;49.188;-0.374;2023-03-12T14:26:54;13.80;;;4.87;;
48861;SDS011;34681;49.188;-0.374;2023-03-12T14:29:24;11.50;;;4.87;;
48861;SDS011;34681;49.188;-0.374;2023-03-12T14:31:53;22.83;;;6.43;;
48861;SDS011;34681;49.188;-0.374;2023-03-12T14:34:21;11.97;;;4.93;;
48861;SDS011;34681;49.188;-0.374;2023-03-12T14:42:29;17.87;;;4.80;;
48861;SDS011;34681;49.188;-0.374;2023-03-12T14:45:10;11.50;;;4.60;;
48861;SDS011;34681;49.188;-0.374;2023-03-12T14:47:38;15.27;;;5.80;;
48861;SDS011;34681;49.188;-0.374;2023-03-12T14:50:05;10.90;;;4.50;;
48861;SDS011;34681;49.188;-0.374;2023-03-12T14:52:31;18.20;;;5.13;;
48861;SDS011;34681;49.188;-0.374;2023-03-12T14:54:59;14.67;;;5.00;;
48861;SDS011;34681;49.188;-0.374;2023-03-12T14:57:27;11.53;;;4.40;;
48861;SDS011;34681;49.188;-0.374;2023-03-12T14:59:56;11.37;;;4.90;;
48861;SDS011;34681;49.188;-0.374;2023-03-12T15:02:24;17.03;;;6.13;;
48861;SDS011;34681;49.188;-0.374;2023-03-12T15:04:51;13.97;;;5.30;;
48861;SDS011;34681;49.188;-0.374;2023-03-12T15:07:21;13.73;;;5.60;;
48861;SDS011;34681;49.188;-0.374;2023-03-12T15:09:52;12.77;;;5.50;;
48861;SDS011;34681;49.188;-0.374;2023-03-12T15:14:43;16.83;;;5.33;;
48861;SDS011;34681;49.188;-0.374;2023-03-12T15:17:13;15.40;;;4.83;;
48861;SDS011;34681;49.188;-0.374;2023-03-12T15:19:41;12.50;;;5.50;;
48861;SDS011;34681;49.188;-0.374;2023-03-12T15:22:25;22.13;;;7.37;;
48861;SDS011;34681;49.188;-0.374;2023-03-12T15:24:54;21.13;;;6.60;;
48861;SDS011;34681;49.188;-0.374;2023-03-12T15:29:54;15.83;;;5.60;;
48861;SDS011;34681;49.188;-0.374;2023-03-12T15:32:22;17.93;;;5.87;;
48861;SDS011;34681;49.188;-0.374;2023-03-12T15:34:49;20.43;;;6.27;;
48861;SDS011;34681;49.188;-0.374;2023-03-12T15:39:47;15.50;;;5.70;;
48861;SDS011;34681;49.188;-0.374;2023-03-12T15:42:15;22.83;;;6.70;;
48861;SDS011;34681;49.188;-0.374;2023-03-12T15:44:44;17.40;;;5.77;;
48861;SDS011;34681;49.188;-0.374;2023-03-12T15:47:13;21.33;;;6.00;;
48861;SDS011;34681;49.188;-0.374;2023-03-12T15:49:42;25.10;;;6.83;;
48861;SDS011;34681;49.188;-0.374;2023-03-12T15:54:42;21.70;;;6.57;;
48861;SDS011;34681;49.188;-0.374;2023-03-12T15:57:27;18.00;;;5.40;;
48861;SDS011;34681;49.188;-0.374;2023-03-12T16:02:59;22.37;;;7.10;;
48861;SDS011;34681;49.188;-0.374;2023-03-12T16:05:33;19.53;;;8.03;;
48861;SDS011;34681;49.188;-0.374;2023-03-12T16:08:05;20.73;;;6.90;;
48861;SDS011;34681;49.188;-0.374;2023-03-12T16:10:43;18.63;;;6.03;;
48861;SDS011;34681;49.188;-0.374;2023-03-12T16:13:11;15.07;;;6.37;;
48861;SDS011;34681;49.188;-0.374;2023-03-12T16:15:39;17.37;;;6.00;;
48861;SDS011;34681;49.188;-0.374;2023-03-12T16:18:10;12.47;;;5.70;;
48861;SDS011;34681;49.188;-0.374;2023-03-12T16:20:37;19.13;;;5.37;;
48861;SDS011;34681;49.188;-0.374;2023-03-12T16:23:03;25.23;;;6.87;;
48861;SDS011;34681;49.188;-0.374;2023-03-12T16:25:28;19.37;;;7.07;;
48861;SDS011;34681;49.188;-0.374;2023-03-12T16:27:55;23.60;;;7.70;;
48861;SDS011;34681;49.188;-0.374;2023-03-12T16:30:25;18.83;;;8.27;;
48861;SDS011;34681;49.188;-0.374;2023-03-12T16:32:52;25.70;;;9.17;;
48861;SDS011;34681;49.188;-0.374;2023-03-12T16:35:19;15.70;;;6.30;;
48861;SDS011;34681;49.188;-0.374;2023-03-12T16:37:45;15.20;;;6.73;;
48861;SDS011;34681;49.188;-0.374;2023-03-12T16:40:11;13.40;;;7.00;;
48861;SDS011;34681;49.188;-0.374;2023-03-12T16:42:39;21.90;;;5.60;;
48861;SDS011;34681;49.188;-0.374;2023-03-12T16:45:08;10.93;;;4.80;;